sensor_id;sensor_type;location;lat;lon;timestamp;temperature;humidity
24560;DHT22;12727;49.934;8.656;2023-07-16T00:02:03;20.00;99.90
24560;DHT22;12727;49.934;8.656;2023-07-16T00:04:28;20.00;99.90
24560;DHT22;12727;49.934;8.656;2023-07-16T00:06:55;19.90;99.90
24560;DHT22;12727;49.934;8.656;2023-07-16T00:09:20;19.90;99.90
24560;DHT22;12727;49.934;8.656;2023-07-16T00:11:46;19.90;99.90
24560;DHT22;12727;49.934;8.656;2023-07-16T00:14:12;19.90;99.90
24560;DHT22;12727;49.934;8.656;2023-07-16T00:16:37;19.80;99.90
24560;DHT22;12727;49.934;8.656;2023-07-16T00:19:03;19.80;99.90
24560;DHT22;12727;49.934;8.656;2023-07-16T00:21:29;19.80;99.90
24560;DHT22;12727;49.934;8.656;2023-07-16T00:23:54;19.80;99.90
24560;DHT22;12727;49.934;8.656;2023-07-16T00:26:21;19.80;99.90
24560;DHT22;12727;49.934;8.656;2023-07-16T00:28:47;19.70;99.90
24560;DHT22;12727;49.934;8.656;2023-07-16T00:31:12;19.70;99.90
24560;DHT22;12727;49.934;8.656;2023-07-16T00:33:38;19.70;99.90
24560;DHT22;12727;49.934;8.656;2023-07-16T00:36:03;19.70;99.90
24560;DHT22;12727;49.934;8.656;2023-07-16T00:38:29;19.60;99.90
24560;DHT22;12727;49.934;8.656;2023-07-16T00:40:56;19.60;99.90
24560;DHT22;12727;49.934;8.656;2023-07-16T00:43:21;19.60;99.90
24560;DHT22;12727;49.934;8.656;2023-07-16T00:45:47;19.50;99.90
24560;DHT22;12727;49.934;8.656;2023-07-16T00:48:12;19.50;99.90
24560;DHT22;12727;49.934;8.656;2023-07-16T00:50:38;19.50;99.90
24560;DHT22;12727;49.934;8.656;2023-07-16T00:53:06;19.50;99.90
24560;DHT22;12727;49.934;8.656;2023-07-16T00:55:32;19.40;99.90
24560;DHT22;12727;49.934;8.656;2023-07-16T00:58:02;19.40;99.90
24560;DHT22;12727;49.934;8.656;2023-07-16T01:00:34;19.30;99.90
24560;DHT22;12727;49.934;8.656;2023-07-16T01:03:05;19.40;99.90
24560;DHT22;12727;49.934;8.656;2023-07-16T01:05:36;19.40;99.90
24560;DHT22;12727;49.934;8.656;2023-07-16T01:08:06;19.40;99.90
24560;DHT22;12727;49.934;8.656;2023-07-16T01:10:33;19.40;99.90
24560;DHT22;12727;49.934;8.656;2023-07-16T01:13:00;19.40;99.90
24560;DHT22;12727;49.934;8.656;2023-07-16T01:15:26;19.30;99.90
24560;DHT22;12727;49.934;8.656;2023-07-16T01:18:00;19.30;99.90
24560;DHT22;12727;49.934;8.656;2023-07-16T01:20:26;19.30;99.90
24560;DHT22;12727;49.934;8.656;2023-07-16T01:31:17;19.20;99.90
24560;DHT22;12727;49.934;8.656;2023-07-16T01:33:43;19.20;99.90
24560;DHT22;12727;49.934;8.656;2023-07-16T01:36:09;19.10;99.90
24560;DHT22;12727;49.934;8.656;2023-07-16T01:38:36;19.10;99.90
24560;DHT22;12727;49.934;8.656;2023-07-16T01:41:02;19.10;99.90
24560;DHT22;12727;49.934;8.656;2023-07-16T01:43:27;19.00;99.90
24560;DHT22;12727;49.934;8.656;2023-07-16T01:45:53;19.00;99.90
24560;DHT22;12727;49.934;8.656;2023-07-16T01:48:30;18.90;99.90
24560;DHT22;12727;49.934;8.656;2023-07-16T01:50:57;18.90;99.90
24560;DHT22;12727;49.934;8.656;2023-07-16T01:53:23;18.80;99.90
24560;DHT22;12727;49.934;8.656;2023-07-16T01:55:48;18.70;99.90
24560;DHT22;12727;49.934;8.656;2023-07-16T01:58:14;18.70;99.90
24560;DHT22;12727;49.934;8.656;2023-07-16T02:00:39;18.60;99.90
24560;DHT22;12727;49.934;8.656;2023-07-16T02:03:05;18.60;99.90
24560;DHT22;12727;49.934;8.656;2023-07-16T02:05:31;18.60;99.90
24560;DHT22;12727;49.934;8.656;2023-07-16T02:07:56;18.50;99.90
24560;DHT22;12727;49.934;8.656;2023-07-16T02:10:22;18.50;99.90
24560;DHT22;12727;49.934;8.656;2023-07-16T02:12:48;18.50;99.90
24560;DHT22;12727;49.934;8.656;2023-07-16T02:15:13;18.40;99.90
24560;DHT22;12727;49.934;8.656;2023-07-16T02:17:39;18.40;99.90
24560;DHT22;12727;49.934;8.656;2023-07-16T02:20:05;18.40;99.90
24560;DHT22;12727;49.934;8.656;2023-07-16T02:22:31;18.40;99.90
24560;DHT22;12727;49.934;8.656;2023-07-16T02:24:57;18.30;99.90
24560;DHT22;12727;49.934;8.656;2023-07-16T02:27:23;18.30;99.90
24560;DHT22;12727;49.934;8.656;2023-07-16T02:29:48;18.30;99.90
24560;DHT22;12727;49.934;8.656;2023-07-16T02:32:14;18.30;99.90
24560;DHT22;12727;49.934;8.656;2023-07-16T02:34:40;18.30;99.90
24560;DHT22;12727;49.934;8.656;2023-07-16T02:37:06;18.30;99.90
24560;DHT22;12727;49.934;8.656;2023-07-16T02:39:32;18.30;99.90
24560;DHT22;12727;49.934;8.656;2023-07-16T02:41:57;18.20;99.90
24560;DHT22;12727;49.934;8.656;2023-07-16T02:44:23;18.20;99.90
24560;DHT22;12727;49.934;8.656;2023-07-16T02:46:48;18.20;99.90
24560;DHT22;12727;49.934;8.656;2023-07-16T02:49:14;18.20;99.90
24560;DHT22;12727;49.934;8.656;2023-07-16T02:51:39;18.20;99.90
24560;DHT22;12727;49.934;8.656;2023-07-16T02:54:05;18.20;99.90
24560;DHT22;12727;49.934;8.656;2023-07-16T02:56:31;18.20;99.90
24560;DHT22;12727;49.934;8.656;2023-07-16T02:58:56;18.20;99.90
24560;DHT22;12727;49.934;8.656;2023-07-16T03:01:22;18.20;99.90
24560;DHT22;12727;49.934;8.656;2023-07-16T03:03:47;18.20;99.90
24560;DHT22;12727;49.934;8.656;2023-07-16T03:06:13;18.30;99.90
24560;DHT22;12727;49.934;8.656;2023-07-16T03:08:38;18.30;99.90
24560;DHT22;12727;49.934;8.656;2023-07-16T03:11:04;18.30;99.90
24560;DHT22;12727;49.934;8.656;2023-07-16T03:13:29;18.30;99.90
24560;DHT22;12727;49.934;8.656;2023-07-16T03:15:55;18.30;99.90
24560;DHT22;12727;49.934;8.656;2023-07-16T03:18:21;18.20;99.90
24560;DHT22;12727;49.934;8.656;2023-07-16T03:20:46;18.20;99.90
24560;DHT22;12727;49.934;8.656;2023-07-16T03:23:12;18.20;99.90
24560;DHT22;12727;49.934;8.656;2023-07-16T03:25:37;18.10;99.90
24560;DHT22;12727;49.934;8.656;2023-07-16T03:28:03;18.10;99.90
24560;DHT22;12727;49.934;8.656;2023-07-16T03:30:30;18.00;99.90
24560;DHT22;12727;49.934;8.656;2023-07-16T03:32:56;18.00;99.90
24560;DHT22;12727;49.934;8.656;2023-07-16T03:35:21;17.90;99.90
24560;DHT22;12727;49.934;8.656;2023-07-16T03:37:47;17.90;99.90
24560;DHT22;12727;49.934;8.656;2023-07-16T03:40:18;17.90;99.90
24560;DHT22;12727;49.934;8.656;2023-07-16T03:42:43;17.90;99.90
24560;DHT22;12727;49.934;8.656;2023-07-16T03:45:12;17.80;99.90
24560;DHT22;12727;49.934;8.656;2023-07-16T03:47:39;17.80;99.90
24560;DHT22;12727;49.934;8.656;2023-07-16T03:50:05;17.70;99.90
24560;DHT22;12727;49.934;8.656;2023-07-16T03:52:30;17.70;99.90
24560;DHT22;12727;49.934;8.656;2023-07-16T03:54:56;17.80;99.90
24560;DHT22;12727;49.934;8.656;2023-07-16T03:57:22;17.80;99.90
24560;DHT22;12727;49.934;8.656;2023-07-16T03:59:47;17.70;99.90
24560;DHT22;12727;49.934;8.656;2023-07-16T04:02:13;17.70;99.90
24560;DHT22;12727;49.934;8.656;2023-07-16T04:04:38;17.70;99.90
24560;DHT22;12727;49.934;8.656;2023-07-16T04:07:04;17.80;99.90
24560;DHT22;12727;49.934;8.656;2023-07-16T04:09:30;17.70;99.90
24560;DHT22;12727;49.934;8.656;2023-07-16T04:11:55;17.70;99.90
24560;DHT22;12727;49.934;8.656;2023-07-16T04:14:21;17.70;99.90
24560;DHT22;12727;49.934;8.656;2023-07-16T04:16:46;17.70;99.90
24560;DHT22;12727;49.934;8.656;2023-07-16T04:19:12;17.70;99.90
24560;DHT22;12727;49.934;8.656;2023-07-16T04:21:38;17.60;99.90
24560;DHT22;12727;49.934;8.656;2023-07-16T04:24:05;17.60;99.90
24560;DHT22;12727;49.934;8.656;2023-07-16T04:26:31;17.70;99.90
24560;DHT22;12727;49.934;8.656;2023-07-16T04:28:57;17.70;99.90
24560;DHT22;12727;49.934;8.656;2023-07-16T04:31:23;17.70;99.90
24560;DHT22;12727;49.934;8.656;2023-07-16T04:33:49;17.70;99.90
24560;DHT22;12727;49.934;8.656;2023-07-16T04:36:15;17.70;99.90
24560;DHT22;12727;49.934;8.656;2023-07-16T04:38:41;17.80;99.90
24560;DHT22;12727;49.934;8.656;2023-07-16T04:41:06;17.80;99.90
24560;DHT22;12727;49.934;8.656;2023-07-16T04:43:32;17.70;99.90
24560;DHT22;12727;49.934;8.656;2023-07-16T04:45:57;17.70;99.90
24560;DHT22;12727;49.934;8.656;2023-07-16T04:48:23;17.70;99.90
24560;DHT22;12727;49.934;8.656;2023-07-16T04:50:50;17.70;99.90
24560;DHT22;12727;49.934;8.656;2023-07-16T04:53:16;17.70;99.90
24560;DHT22;12727;49.934;8.656;2023-07-16T04:55:44;17.70;99.90
24560;DHT22;12727;49.934;8.656;2023-07-16T04:58:11;17.80;99.90
24560;DHT22;12727;49.934;8.656;2023-07-16T05:00:37;17.90;99.90
24560;DHT22;12727;49.934;8.656;2023-07-16T05:03:03;17.90;99.90
24560;DHT22;12727;49.934;8.656;2023-07-16T05:05:28;17.90;99.90
24560;DHT22;12727;49.934;8.656;2023-07-16T05:07:54;17.90;99.90
24560;DHT22;12727;49.934;8.656;2023-07-16T05:10:20;18.00;99.90
24560;DHT22;12727;49.934;8.656;2023-07-16T05:12:45;18.10;99.90
24560;DHT22;12727;49.934;8.656;2023-07-16T05:15:11;18.00;99.90
24560;DHT22;12727;49.934;8.656;2023-07-16T05:17:36;18.00;99.90
24560;DHT22;12727;49.934;8.656;2023-07-16T05:20:02;18.10;99.90
24560;DHT22;12727;49.934;8.656;2023-07-16T05:22:29;18.00;99.90
24560;DHT22;12727;49.934;8.656;2023-07-16T05:24:55;18.10;99.90
24560;DHT22;12727;49.934;8.656;2023-07-16T05:27:20;18.20;99.90
24560;DHT22;12727;49.934;8.656;2023-07-16T05:29:46;18.30;99.90
24560;DHT22;12727;49.934;8.656;2023-07-16T05:32:13;18.20;99.90
24560;DHT22;12727;49.934;8.656;2023-07-16T05:34:38;18.20;99.90
24560;DHT22;12727;49.934;8.656;2023-07-16T05:37:04;18.30;99.90
24560;DHT22;12727;49.934;8.656;2023-07-16T05:39:30;18.30;99.90
24560;DHT22;12727;49.934;8.656;2023-07-16T05:41:55;18.30;99.90
24560;DHT22;12727;49.934;8.656;2023-07-16T05:44:21;18.30;99.90
24560;DHT22;12727;49.934;8.656;2023-07-16T05:46:46;18.50;99.90
24560;DHT22;12727;49.934;8.656;2023-07-16T05:49:12;18.50;99.90
24560;DHT22;12727;49.934;8.656;2023-07-16T05:51:38;18.50;99.90
24560;DHT22;12727;49.934;8.656;2023-07-16T05:54:04;18.60;99.90
24560;DHT22;12727;49.934;8.656;2023-07-16T05:56:29;18.70;99.90
24560;DHT22;12727;49.934;8.656;2023-07-16T05:58:55;18.70;99.90
24560;DHT22;12727;49.934;8.656;2023-07-16T06:01:21;18.80;99.90
24560;DHT22;12727;49.934;8.656;2023-07-16T06:03:47;19.00;99.90
24560;DHT22;12727;49.934;8.656;2023-07-16T06:06:12;19.20;99.90
24560;DHT22;12727;49.934;8.656;2023-07-16T06:08:38;19.60;99.90
24560;DHT22;12727;49.934;8.656;2023-07-16T06:11:03;19.70;99.90
24560;DHT22;12727;49.934;8.656;2023-07-16T06:13:29;19.80;99.90
24560;DHT22;12727;49.934;8.656;2023-07-16T06:15:55;19.90;99.90
24560;DHT22;12727;49.934;8.656;2023-07-16T06:18:20;20.10;99.90
24560;DHT22;12727;49.934;8.656;2023-07-16T06:20:46;20.10;99.90
24560;DHT22;12727;49.934;8.656;2023-07-16T06:23:12;20.30;99.90
24560;DHT22;12727;49.934;8.656;2023-07-16T06:25:38;20.40;99.90
24560;DHT22;12727;49.934;8.656;2023-07-16T06:28:06;20.60;99.90
24560;DHT22;12727;49.934;8.656;2023-07-16T06:30:31;20.70;99.90
24560;DHT22;12727;49.934;8.656;2023-07-16T06:32:58;20.80;99.90
24560;DHT22;12727;49.934;8.656;2023-07-16T06:35:24;21.00;99.90
24560;DHT22;12727;49.934;8.656;2023-07-16T06:37:49;21.10;99.90
24560;DHT22;12727;49.934;8.656;2023-07-16T06:40:15;21.00;99.90
24560;DHT22;12727;49.934;8.656;2023-07-16T06:42:40;21.00;99.90
24560;DHT22;12727;49.934;8.656;2023-07-16T06:45:07;21.30;99.90
24560;DHT22;12727;49.934;8.656;2023-07-16T06:47:33;21.50;99.90
24560;DHT22;12727;49.934;8.656;2023-07-16T06:49:58;21.60;99.40
24560;DHT22;12727;49.934;8.656;2023-07-16T06:52:24;21.40;99.90
24560;DHT22;12727;49.934;8.656;2023-07-16T06:54:53;21.60;99.90
24560;DHT22;12727;49.934;8.656;2023-07-16T06:57:19;21.60;99.50
24560;DHT22;12727;49.934;8.656;2023-07-16T06:59:44;21.60;99.10
24560;DHT22;12727;49.934;8.656;2023-07-16T07:02:10;21.90;98.80
24560;DHT22;12727;49.934;8.656;2023-07-16T07:04:36;21.90;98.00
24560;DHT22;12727;49.934;8.656;2023-07-16T07:07:01;22.00;97.20
24560;DHT22;12727;49.934;8.656;2023-07-16T07:09:27;22.00;97.50
24560;DHT22;12727;49.934;8.656;2023-07-16T07:11:53;21.90;97.10
24560;DHT22;12727;49.934;8.656;2023-07-16T07:14:18;22.00;96.70
24560;DHT22;12727;49.934;8.656;2023-07-16T07:16:44;22.20;96.00
24560;DHT22;12727;49.934;8.656;2023-07-16T07:19:09;22.30;95.70
24560;DHT22;12727;49.934;8.656;2023-07-16T07:21:35;22.10;95.70
24560;DHT22;12727;49.934;8.656;2023-07-16T07:24:00;22.30;96.00
24560;DHT22;12727;49.934;8.656;2023-07-16T07:26:26;22.60;95.10
24560;DHT22;12727;49.934;8.656;2023-07-16T07:28:52;22.80;93.90
24560;DHT22;12727;49.934;8.656;2023-07-16T07:31:18;22.70;93.60
24560;DHT22;12727;49.934;8.656;2023-07-16T07:33:44;22.70;92.30
24560;DHT22;12727;49.934;8.656;2023-07-16T07:36:09;22.40;93.50
24560;DHT22;12727;49.934;8.656;2023-07-16T07:38:35;22.80;94.10
24560;DHT22;12727;49.934;8.656;2023-07-16T07:41:01;22.80;92.80
24560;DHT22;12727;49.934;8.656;2023-07-16T07:43:27;22.70;92.50
24560;DHT22;12727;49.934;8.656;2023-07-16T07:45:52;22.80;92.20
24560;DHT22;12727;49.934;8.656;2023-07-16T07:48:18;22.60;92.30
24560;DHT22;12727;49.934;8.656;2023-07-16T07:50:43;22.60;92.30
24560;DHT22;12727;49.934;8.656;2023-07-16T07:53:11;22.40;92.60
24560;DHT22;12727;49.934;8.656;2023-07-16T07:55:36;21.90;91.60
24560;DHT22;12727;49.934;8.656;2023-07-16T07:58:02;22.00;92.40
24560;DHT22;12727;49.934;8.656;2023-07-16T08:00:29;22.20;92.30
24560;DHT22;12727;49.934;8.656;2023-07-16T08:02:54;22.80;91.80
24560;DHT22;12727;49.934;8.656;2023-07-16T08:05:20;23.00;91.10
24560;DHT22;12727;49.934;8.656;2023-07-16T08:07:45;23.00;89.20
24560;DHT22;12727;49.934;8.656;2023-07-16T08:10:11;23.50;88.70
24560;DHT22;12727;49.934;8.656;2023-07-16T08:12:37;23.30;86.20
24560;DHT22;12727;49.934;8.656;2023-07-16T08:15:03;22.80;85.90
24560;DHT22;12727;49.934;8.656;2023-07-16T08:17:29;23.10;84.90
24560;DHT22;12727;49.934;8.656;2023-07-16T08:19:54;23.40;83.00
24560;DHT22;12727;49.934;8.656;2023-07-16T08:22:21;22.80;84.90
24560;DHT22;12727;49.934;8.656;2023-07-16T08:24:50;22.50;86.40
24560;DHT22;12727;49.934;8.656;2023-07-16T08:27:16;22.10;87.60
24560;DHT22;12727;49.934;8.656;2023-07-16T08:29:41;22.60;86.90
24560;DHT22;12727;49.934;8.656;2023-07-16T08:32:07;22.30;85.30
24560;DHT22;12727;49.934;8.656;2023-07-16T08:34:33;22.10;85.60
24560;DHT22;12727;49.934;8.656;2023-07-16T08:37:02;22.20;86.20
24560;DHT22;12727;49.934;8.656;2023-07-16T08:39:27;22.60;84.80
24560;DHT22;12727;49.934;8.656;2023-07-16T08:41:53;22.90;82.90
24560;DHT22;12727;49.934;8.656;2023-07-16T08:44:20;23.80;80.90
24560;DHT22;12727;49.934;8.656;2023-07-16T08:46:45;24.10;78.80
24560;DHT22;12727;49.934;8.656;2023-07-16T08:49:11;24.20;78.00
24560;DHT22;12727;49.934;8.656;2023-07-16T08:51:38;24.10;72.00
24560;DHT22;12727;49.934;8.656;2023-07-16T08:54:04;24.40;75.30
24560;DHT22;12727;49.934;8.656;2023-07-16T08:56:30;25.00;73.00
24560;DHT22;12727;49.934;8.656;2023-07-16T08:58:55;25.50;71.00
24560;DHT22;12727;49.934;8.656;2023-07-16T09:01:21;25.80;69.20
24560;DHT22;12727;49.934;8.656;2023-07-16T09:03:47;26.00;68.30
24560;DHT22;12727;49.934;8.656;2023-07-16T09:06:13;26.60;67.90
24560;DHT22;12727;49.934;8.656;2023-07-16T09:08:39;26.90;66.50
24560;DHT22;12727;49.934;8.656;2023-07-16T09:11:04;26.10;63.00
24560;DHT22;12727;49.934;8.656;2023-07-16T09:13:30;26.20;64.60
24560;DHT22;12727;49.934;8.656;2023-07-16T09:15:57;26.30;62.60
24560;DHT22;12727;49.934;8.656;2023-07-16T09:18:25;26.40;63.20
24560;DHT22;12727;49.934;8.656;2023-07-16T09:20:57;26.40;58.80
24560;DHT22;12727;49.934;8.656;2023-07-16T09:23:24;25.90;60.10
24560;DHT22;12727;49.934;8.656;2023-07-16T09:25:51;25.70;59.60
24560;DHT22;12727;49.934;8.656;2023-07-16T09:28:18;25.50;61.00
24560;DHT22;12727;49.934;8.656;2023-07-16T09:30:46;25.00;61.70
24560;DHT22;12727;49.934;8.656;2023-07-16T09:35:41;25.50;61.10
24560;DHT22;12727;49.934;8.656;2023-07-16T09:38:10;26.10;59.70
24560;DHT22;12727;49.934;8.656;2023-07-16T09:40:37;26.60;58.60
24560;DHT22;12727;49.934;8.656;2023-07-16T09:43:03;26.20;59.00
24560;DHT22;12727;49.934;8.656;2023-07-16T09:45:30;26.50;58.30
24560;DHT22;12727;49.934;8.656;2023-07-16T09:47:55;26.90;57.70
24560;DHT22;12727;49.934;8.656;2023-07-16T09:50:23;26.80;56.90
24560;DHT22;12727;49.934;8.656;2023-07-16T09:52:51;26.70;57.60
24560;DHT22;12727;49.934;8.656;2023-07-16T09:55:18;26.70;57.50
24560;DHT22;12727;49.934;8.656;2023-07-16T09:57:47;27.00;58.10
24560;DHT22;12727;49.934;8.656;2023-07-16T10:00:15;27.40;57.50
24560;DHT22;12727;49.934;8.656;2023-07-16T10:02:41;27.50;55.50
24560;DHT22;12727;49.934;8.656;2023-07-16T10:05:14;27.90;53.40
24560;DHT22;12727;49.934;8.656;2023-07-16T10:07:40;27.30;53.80
24560;DHT22;12727;49.934;8.656;2023-07-16T10:10:08;27.30;53.30
24560;DHT22;12727;49.934;8.656;2023-07-16T10:12:35;27.40;55.00
24560;DHT22;12727;49.934;8.656;2023-07-16T10:15:01;26.90;54.70
24560;DHT22;12727;49.934;8.656;2023-07-16T10:17:31;26.80;55.10
24560;DHT22;12727;49.934;8.656;2023-07-16T10:20:02;27.30;54.70
24560;DHT22;12727;49.934;8.656;2023-07-16T10:22:55;27.60;54.90
24560;DHT22;12727;49.934;8.656;2023-07-16T10:27:48;27.30;53.20
24560;DHT22;12727;49.934;8.656;2023-07-16T10:30:14;26.70;52.40
24560;DHT22;12727;49.934;8.656;2023-07-16T10:32:41;26.80;53.70
24560;DHT22;12727;49.934;8.656;2023-07-16T10:35:07;27.00;53.70
24560;DHT22;12727;49.934;8.656;2023-07-16T10:37:38;26.50;52.50
24560;DHT22;12727;49.934;8.656;2023-07-16T10:40:05;26.70;53.00
24560;DHT22;12727;49.934;8.656;2023-07-16T10:42:31;26.80;51.30
24560;DHT22;12727;49.934;8.656;2023-07-16T10:45:02;27.40;51.20
24560;DHT22;12727;49.934;8.656;2023-07-16T10:47:32;27.70;50.60
24560;DHT22;12727;49.934;8.656;2023-07-16T10:49:58;27.50;50.30
24560;DHT22;12727;49.934;8.656;2023-07-16T10:52:25;27.50;50.30
24560;DHT22;12727;49.934;8.656;2023-07-16T10:54:53;27.60;50.50
24560;DHT22;12727;49.934;8.656;2023-07-16T10:57:27;27.10;50.60
24560;DHT22;12727;49.934;8.656;2023-07-16T10:59:54;27.50;51.30
24560;DHT22;12727;49.934;8.656;2023-07-16T11:02:21;27.80;49.80
24560;DHT22;12727;49.934;8.656;2023-07-16T11:04:47;27.30;50.10
24560;DHT22;12727;49.934;8.656;2023-07-16T11:07:14;27.00;51.00
24560;DHT22;12727;49.934;8.656;2023-07-16T11:09:51;27.00;50.60
24560;DHT22;12727;49.934;8.656;2023-07-16T11:12:20;27.10;50.30
24560;DHT22;12727;49.934;8.656;2023-07-16T11:14:53;27.40;49.40
24560;DHT22;12727;49.934;8.656;2023-07-16T11:17:19;27.00;49.30
24560;DHT22;12727;49.934;8.656;2023-07-16T11:19:46;27.10;49.20
24560;DHT22;12727;49.934;8.656;2023-07-16T11:22:14;27.40;50.10
24560;DHT22;12727;49.934;8.656;2023-07-16T11:24:45;27.80;50.10
24560;DHT22;12727;49.934;8.656;2023-07-16T11:27:15;27.50;49.00
24560;DHT22;12727;49.934;8.656;2023-07-16T11:29:53;27.50;50.20
24560;DHT22;12727;49.934;8.656;2023-07-16T11:32:34;27.40;49.60
24560;DHT22;12727;49.934;8.656;2023-07-16T11:35:05;26.70;49.70
24560;DHT22;12727;49.934;8.656;2023-07-16T11:37:32;25.90;51.30
24560;DHT22;12727;49.934;8.656;2023-07-16T11:40:06;25.70;51.40
24560;DHT22;12727;49.934;8.656;2023-07-16T11:42:35;25.70;51.70
24560;DHT22;12727;49.934;8.656;2023-07-16T11:45:02;25.80;51.20
24560;DHT22;12727;49.934;8.656;2023-07-16T11:47:28;25.90;51.40
24560;DHT22;12727;49.934;8.656;2023-07-16T11:49:54;25.80;51.70
24560;DHT22;12727;49.934;8.656;2023-07-16T11:52:25;25.50;52.00
24560;DHT22;12727;49.934;8.656;2023-07-16T11:54:52;25.30;52.80
24560;DHT22;12727;49.934;8.656;2023-07-16T11:57:18;25.20;52.70
24560;DHT22;12727;49.934;8.656;2023-07-16T11:59:43;25.30;52.80
24560;DHT22;12727;49.934;8.656;2023-07-16T12:02:09;25.50;53.40
24560;DHT22;12727;49.934;8.656;2023-07-16T12:04:35;25.70;52.70
24560;DHT22;12727;49.934;8.656;2023-07-16T12:07:00;25.80;51.70
24560;DHT22;12727;49.934;8.656;2023-07-16T12:09:26;25.90;50.80
24560;DHT22;12727;49.934;8.656;2023-07-16T12:11:51;25.90;51.40
24560;DHT22;12727;49.934;8.656;2023-07-16T12:14:17;26.00;51.20
24560;DHT22;12727;49.934;8.656;2023-07-16T12:16:43;26.20;51.40
24560;DHT22;12727;49.934;8.656;2023-07-16T12:19:09;26.00;50.10
24560;DHT22;12727;49.934;8.656;2023-07-16T12:21:35;25.70;50.50
24560;DHT22;12727;49.934;8.656;2023-07-16T12:24:01;25.80;50.90
24560;DHT22;12727;49.934;8.656;2023-07-16T12:26:27;25.90;50.60
24560;DHT22;12727;49.934;8.656;2023-07-16T12:28:53;25.70;51.10
24560;DHT22;12727;49.934;8.656;2023-07-16T12:31:18;25.50;52.00
24560;DHT22;12727;49.934;8.656;2023-07-16T12:33:45;25.60;51.80
24560;DHT22;12727;49.934;8.656;2023-07-16T12:36:12;25.80;51.60
24560;DHT22;12727;49.934;8.656;2023-07-16T12:38:37;25.90;49.80
24560;DHT22;12727;49.934;8.656;2023-07-16T12:41:03;25.90;49.90
24560;DHT22;12727;49.934;8.656;2023-07-16T12:43:28;25.90;50.10
24560;DHT22;12727;49.934;8.656;2023-07-16T12:45:54;26.00;50.70
24560;DHT22;12727;49.934;8.656;2023-07-16T12:48:20;25.90;50.80
24560;DHT22;12727;49.934;8.656;2023-07-16T12:50:45;25.70;51.60
24560;DHT22;12727;49.934;8.656;2023-07-16T12:53:11;25.80;52.10
24560;DHT22;12727;49.934;8.656;2023-07-16T12:55:37;25.60;52.40
24560;DHT22;12727;49.934;8.656;2023-07-16T12:58:02;25.40;52.50
24560;DHT22;12727;49.934;8.656;2023-07-16T13:00:28;25.10;52.70
24560;DHT22;12727;49.934;8.656;2023-07-16T13:02:53;25.00;53.00
24560;DHT22;12727;49.934;8.656;2023-07-16T13:05:19;25.20;53.10
24560;DHT22;12727;49.934;8.656;2023-07-16T13:07:45;25.30;53.10
24560;DHT22;12727;49.934;8.656;2023-07-16T13:10:10;25.60;53.20
24560;DHT22;12727;49.934;8.656;2023-07-16T13:12:36;25.70;51.80
24560;DHT22;12727;49.934;8.656;2023-07-16T13:15:02;25.80;51.50
24560;DHT22;12727;49.934;8.656;2023-07-16T13:17:28;25.90;51.40
24560;DHT22;12727;49.934;8.656;2023-07-16T13:19:53;26.00;50.70
24560;DHT22;12727;49.934;8.656;2023-07-16T13:22:19;25.80;51.10
24560;DHT22;12727;49.934;8.656;2023-07-16T13:24:44;25.80;51.40
24560;DHT22;12727;49.934;8.656;2023-07-16T13:27:19;25.70;51.80
24560;DHT22;12727;49.934;8.656;2023-07-16T13:29:45;25.90;52.00
24560;DHT22;12727;49.934;8.656;2023-07-16T13:32:10;26.10;51.90
24560;DHT22;12727;49.934;8.656;2023-07-16T13:34:36;26.00;51.10
24560;DHT22;12727;49.934;8.656;2023-07-16T13:37:02;26.00;51.00
24560;DHT22;12727;49.934;8.656;2023-07-16T13:39:27;26.10;51.20
24560;DHT22;12727;49.934;8.656;2023-07-16T13:41:53;26.10;50.10
24560;DHT22;12727;49.934;8.656;2023-07-16T13:44:18;25.90;50.30
24560;DHT22;12727;49.934;8.656;2023-07-16T13:46:44;25.80;51.00
24560;DHT22;12727;49.934;8.656;2023-07-16T13:49:09;25.70;50.90
24560;DHT22;12727;49.934;8.656;2023-07-16T13:51:35;25.70;51.10
24560;DHT22;12727;49.934;8.656;2023-07-16T13:54:00;25.90;50.60
24560;DHT22;12727;49.934;8.656;2023-07-16T13:56:26;25.90;50.50
24560;DHT22;12727;49.934;8.656;2023-07-16T13:58:51;26.00;50.50
24560;DHT22;12727;49.934;8.656;2023-07-16T14:01:19;26.10;50.30
24560;DHT22;12727;49.934;8.656;2023-07-16T14:03:45;26.10;50.30
24560;DHT22;12727;49.934;8.656;2023-07-16T14:06:10;26.10;50.60
24560;DHT22;12727;49.934;8.656;2023-07-16T14:08:36;26.20;49.80
24560;DHT22;12727;49.934;8.656;2023-07-16T14:11:02;26.20;50.00
24560;DHT22;12727;49.934;8.656;2023-07-16T14:13:28;26.30;49.60
24560;DHT22;12727;49.934;8.656;2023-07-16T14:15:54;26.10;49.60
24560;DHT22;12727;49.934;8.656;2023-07-16T14:18:19;25.90;49.50
24560;DHT22;12727;49.934;8.656;2023-07-16T14:20:45;25.70;50.10
24560;DHT22;12727;49.934;8.656;2023-07-16T14:23:10;25.60;50.30
24560;DHT22;12727;49.934;8.656;2023-07-16T14:25:36;25.60;50.30
24560;DHT22;12727;49.934;8.656;2023-07-16T14:28:02;25.50;50.60
24560;DHT22;12727;49.934;8.656;2023-07-16T14:30:27;25.60;50.50
24560;DHT22;12727;49.934;8.656;2023-07-16T14:32:53;25.60;50.50
24560;DHT22;12727;49.934;8.656;2023-07-16T14:35:19;25.60;49.90
24560;DHT22;12727;49.934;8.656;2023-07-16T14:37:44;25.60;50.40
24560;DHT22;12727;49.934;8.656;2023-07-16T14:40:10;25.90;50.50
24560;DHT22;12727;49.934;8.656;2023-07-16T14:42:36;26.00;49.70
24560;DHT22;12727;49.934;8.656;2023-07-16T14:45:02;25.80;49.60
24560;DHT22;12727;49.934;8.656;2023-07-16T14:47:30;25.80;50.00
24560;DHT22;12727;49.934;8.656;2023-07-16T14:49:55;25.80;49.90
24560;DHT22;12727;49.934;8.656;2023-07-16T14:52:21;25.70;49.80
24560;DHT22;12727;49.934;8.656;2023-07-16T14:54:46;25.60;50.10
24560;DHT22;12727;49.934;8.656;2023-07-16T14:57:12;25.60;50.10
24560;DHT22;12727;49.934;8.656;2023-07-16T14:59:37;25.70;50.30
24560;DHT22;12727;49.934;8.656;2023-07-16T15:02:04;25.60;49.90
24560;DHT22;12727;49.934;8.656;2023-07-16T15:04:29;25.60;50.40
24560;DHT22;12727;49.934;8.656;2023-07-16T15:06:55;25.70;50.00
24560;DHT22;12727;49.934;8.656;2023-07-16T15:09:22;25.70;50.40
24560;DHT22;12727;49.934;8.656;2023-07-16T15:11:47;25.60;50.30
24560;DHT22;12727;49.934;8.656;2023-07-16T15:14:13;25.50;50.50
24560;DHT22;12727;49.934;8.656;2023-07-16T15:16:39;25.50;51.00
24560;DHT22;12727;49.934;8.656;2023-07-16T15:19:05;25.40;51.70
24560;DHT22;12727;49.934;8.656;2023-07-16T15:21:30;25.40;51.20
24560;DHT22;12727;49.934;8.656;2023-07-16T15:23:56;25.50;51.30
24560;DHT22;12727;49.934;8.656;2023-07-16T15:26:22;25.70;50.80
24560;DHT22;12727;49.934;8.656;2023-07-16T15:28:47;25.90;51.20
24560;DHT22;12727;49.934;8.656;2023-07-16T15:31:16;26.00;50.70
24560;DHT22;12727;49.934;8.656;2023-07-16T15:33:42;26.10;50.80
24560;DHT22;12727;49.934;8.656;2023-07-16T15:36:07;26.10;50.30
24560;DHT22;12727;49.934;8.656;2023-07-16T15:38:33;26.10;50.40